CZ-0159 weather

Konojedy Airstrip
Konojedy, Central Bohemian Region, Czechia

Public forecast

Using degrees Celsius for public forecast. Weather courtesy of forecast.io.

METAR (pilot weather report)

Closest report is Kbely Air Base, 16.2 nm (30.0 km) NW. Retrieved 2019/01/17 08:00 UTC (36 minutes ago):

LKKB 170800Z 23016KT 9999 OVC031 05/M02 Q1004 NOSIG

TAF (pilot weather forecast)

Closest forecast is Kbely Air Base, 16.2 nm (30.0 km) NW. Retrieved 2019/01/17 06:00 UTC (3 hours ago):

TAF COR LKKB 170500Z 1706/1806 24014KT CAVOK PROB40 TEMPO 1706/1723 24018G28KT TEMPO 1707/1721 BKN035 BECMG 1800/1803 28016KT